Time;durP1;ratioP1;P1;durP2;ratioP2;P2;SDS_P1;SDS_P2;PMS_P1;PMS_P2;Temp;Humidity;BMP_temperature;BMP_pressure;BME280_temperature;BME280_humidity;BME280_pressure;Samples;Min_cycle;Max_cycle;Signal;HPM_P1;HPM_P2
2023/05/31 00:01:14;;;;;;;6.38;1.88;;;10.90;99.90;;;;;;5055385;28;20041;-52
2023/05/31 00:03:42;;;;;;;6.80;1.80;;;10.90;99.90;;;;;;5055374;28;20137;-53
2023/05/31 00:06:09;;;;;;;3.83;1.33;;;10.90;99.90;;;;;;5055229;28;20381;-53
2023/05/31 00:08:35;;;;;;;4.10;1.40;;;10.90;99.90;;;;;;5055272;28;20507;-52
2023/05/31 00:11:01;;;;;;;5.43;1.57;;;10.90;99.90;;;;;;5055001;28;20092;-54
2023/05/31 00:13:26;;;;;;;4.13;1.70;;;10.90;99.90;;;;;;5055063;28;20049;-53
2023/05/31 00:15:52;;;;;;;4.37;1.37;;;11.00;99.90;;;;;;5054575;28;20056;-53
2023/05/31 00:18:18;;;;;;;6.00;1.73;;;10.90;99.90;;;;;;5055365;28;20045;-53
2023/05/31 00:20:43;;;;;;;5.47;1.53;;;11.00;99.90;;;;;;5054982;28;20051;-54
2023/05/31 00:23:10;;;;;;;5.83;1.70;;;10.90;99.90;;;;;;5053339;28;20053;-53
2023/05/31 00:25:35;;;;;;;7.95;1.95;;;10.90;99.90;;;;;;5054951;28;20051;-52
2023/05/31 00:28:01;;;;;;;6.30;1.40;;;10.90;99.90;;;;;;5054732;28;20045;-52
2023/05/31 00:30:27;;;;;;;5.27;1.40;;;10.80;99.90;;;;;;5054881;28;20048;-52
2023/05/31 00:32:52;;;;;;;6.37;1.97;;;10.80;99.90;;;;;;5054826;28;20076;-51
2023/05/31 00:35:18;;;;;;;4.57;1.60;;;10.80;99.90;;;;;;5037577;28;20131;-53
2023/05/31 00:37:44;;;;;;;4.60;1.57;;;10.80;99.90;;;;;;5054868;28;20048;-53
2023/05/31 00:40:10;;;;;;;4.80;1.60;;;10.80;99.90;;;;;;5054518;28;20049;-53
2023/05/31 00:42:36;;;;;;;4.32;1.48;;;10.80;99.90;;;;;;5054356;28;20135;-54
2023/05/31 00:45:02;;;;;;;4.73;1.93;;;10.70;99.90;;;;;;5054657;28;20132;-53
2023/05/31 00:47:28;;;;;;;4.10;1.63;;;10.80;99.90;;;;;;5054395;28;20190;-52
2023/05/31 00:49:56;;;;;;;5.40;2.13;;;10.70;99.90;;;;;;5054474;28;20049;-54
2023/05/31 00:52:22;;;;;;;5.63;1.92;;;10.70;99.90;;;;;;5053398;28;20132;-53
2023/05/31 00:54:49;;;;;;;4.45;1.23;;;10.70;99.90;;;;;;5054288;28;20052;-50
2023/05/31 00:57:15;;;;;;;4.57;1.98;;;10.70;99.90;;;;;;5054003;28;20473;-51
2023/05/31 00:59:41;;;;;;;6.13;1.60;;;10.70;99.90;;;;;;5054688;28;20131;-51
2023/05/31 01:02:06;;;;;;;5.13;2.00;;;10.70;99.90;;;;;;5054646;28;20135;-53
2023/05/31 01:04:32;;;;;;;5.47;2.03;;;10.70;99.90;;;;;;5054253;28;20053;-52
2023/05/31 01:07:01;;;;;;;4.93;2.20;;;10.70;99.90;;;;;;5053980;28;20051;-53
2023/05/31 01:09:30;;;;;;;5.65;2.30;;;10.80;99.90;;;;;;5052673;28;20041;-53
2023/05/31 01:12:08;;;;;;;4.70;1.92;;;10.80;99.90;;;;;;5036535;28;20055;-54
2023/05/31 01:15:07;;;;;;;5.20;1.73;;;10.80;99.90;;;;;;5054278;28;20045;-53
2023/05/31 01:17:44;;;;;;;5.15;2.13;;;10.80;99.90;;;;;;5047440;28;20069;-52
2023/05/31 01:20:13;;;;;;;4.97;1.95;;;10.80;99.90;;;;;;5052809;28;20048;-53
2023/05/31 01:22:50;;;;;;;4.90;1.70;;;10.70;99.90;;;;;;5053779;28;20444;-52
2023/05/31 01:25:45;;;;;;;4.97;1.58;;;10.70;99.90;;;;;;5053957;28;20416;-53
2023/05/31 01:28:14;;;;;;;4.03;1.42;;;10.70;99.90;;;;;;5053122;28;20048;-52
2023/05/31 01:30:40;;;;;;;4.55;1.40;;;10.60;99.90;;;;;;5053755;28;20508;-52
2023/05/31 01:33:10;;;;;;;4.03;1.43;;;10.60;99.90;;;;;;5053779;28;20053;-53
2023/05/31 01:35:36;;;;;;;4.68;1.52;;;10.50;99.90;;;;;;5053988;28;20098;-53
2023/05/31 01:38:02;;;;;;;4.43;1.60;;;10.50;99.90;;;;;;5053704;28;20442;-53
2023/05/31 01:40:28;;;;;;;2.40;1.10;;;10.40;99.90;;;;;;5053518;28;20681;-52
2023/05/31 01:42:53;;;;;;;2.83;0.85;;;10.40;99.90;;;;;;5053388;28;20124;-52
2023/05/31 01:45:21;;;;;;;3.17;1.00;;;10.30;99.90;;;;;;5053352;28;20511;-53
2023/05/31 01:47:48;;;;;;;2.50;0.88;;;10.20;99.90;;;;;;5053446;28;20048;-52
2023/05/31 01:50:14;;;;;;;3.47;0.60;;;10.10;99.90;;;;;;5053903;28;20127;-53
2023/05/31 01:52:40;;;;;;;2.55;0.77;;;10.00;99.90;;;;;;5053556;28;20385;-50
2023/05/31 01:55:07;;;;;;;2.33;0.80;;;9.90;99.90;;;;;;5053345;28;20041;-52
2023/05/31 01:57:35;;;;;;;1.63;0.50;;;9.80;99.90;;;;;;5052221;28;20056;-53
2023/05/31 02:00:05;;;;;;;2.17;0.77;;;9.70;99.90;;;;;;5053176;28;20485;-51
2023/05/31 02:02:32;;;;;;;3.50;0.90;;;9.70;99.90;;;;;;5053934;28;20053;-52
2023/05/31 02:05:08;;;;;;;3.13;1.05;;;9.60;99.90;;;;;;5053456;28;20052;-48
2023/05/31 02:07:37;;;;;;;2.65;0.90;;;9.60;99.90;;;;;;5053261;28;20076;-53
2023/05/31 02:10:03;;;;;;;2.58;0.90;;;9.60;99.90;;;;;;5053165;28;20102;-52
2023/05/31 02:12:29;;;;;;;3.35;1.30;;;9.60;99.90;;;;;;5053390;28;20142;-50
2023/05/31 02:14:55;;;;;;;3.87;1.10;;;9.60;99.90;;;;;;5053179;28;20484;-53
2023/05/31 02:17:24;;;;;;;3.73;1.10;;;9.60;99.90;;;;;;5053379;28;20332;-53
2023/05/31 02:19:53;;;;;;;2.88;1.20;;;9.60;99.90;;;;;;5053551;28;20388;-52
2023/05/31 02:22:20;;;;;;;3.35;1.00;;;9.60;99.90;;;;;;5053166;28;20061;-51
2023/05/31 02:24:46;;;;;;;4.15;1.45;;;9.70;99.90;;;;;;5053073;28;20061;-53
2023/05/31 02:27:12;;;;;;;3.25;1.30;;;9.70;99.90;;;;;;5053187;28;20456;-52
2023/05/31 02:29:38;;;;;;;2.80;1.13;;;9.70;99.90;;;;;;5053235;28;20076;-53
2023/05/31 02:32:04;;;;;;;3.13;1.00;;;9.70;99.90;;;;;;5053572;28;20049;-52
2023/05/31 02:34:30;;;;;;;2.35;0.88;;;9.70;99.90;;;;;;5053015;28;20056;-50
2023/05/31 02:36:56;;;;;;;1.48;0.52;;;9.70;99.90;;;;;;5053037;28;20041;-52
2023/05/31 02:39:22;;;;;;;1.60;0.65;;;9.70;99.90;;;;;;5053533;28;20049;-52
2023/05/31 02:41:48;;;;;;;1.20;0.50;;;9.70;99.90;;;;;;5056667;28;20503;-52
2023/05/31 02:44:13;;;;;;;1.60;0.40;;;9.60;99.90;;;;;;5056799;28;20057;-52
2023/05/31 02:46:39;;;;;;;1.53;0.50;;;9.60;99.90;;;;;;5056691;28;20045;-52
2023/05/31 02:49:06;;;;;;;3.30;1.30;;;9.50;99.90;;;;;;5055820;28;20374;-50
2023/05/31 02:51:32;;;;;;;2.25;0.68;;;9.50;99.90;;;;;;5055635;28;20060;-51
2023/05/31 02:53:58;;;;;;;1.88;0.88;;;9.40;99.90;;;;;;5056481;28;20041;-53
2023/05/31 02:56:23;;;;;;;2.13;0.87;;;9.40;99.90;;;;;;5056657;28;20090;-53
2023/05/31 02:58:49;;;;;;;4.23;1.10;;;9.40;99.90;;;;;;5055658;28;20056;-52
2023/05/31 03:01:15;;;;;;;2.33;0.60;;;9.50;99.90;;;;;;5056518;28;20053;-54
2023/05/31 03:03:41;;;;;;;2.83;0.90;;;9.50;99.90;;;;;;5056459;28;20590;-52
2023/05/31 03:06:06;;;;;;;2.72;1.00;;;9.50;99.90;;;;;;5056318;28;20067;-53
2023/05/31 03:08:32;;;;;;;3.23;0.80;;;9.50;99.90;;;;;;5056362;28;20477;-53
2023/05/31 03:10:58;;;;;;;3.27;0.80;;;9.50;99.90;;;;;;5056422;28;20052;-52
2023/05/31 03:13:23;;;;;;;1.90;0.73;;;9.50;99.90;;;;;;5056166;28;20059;-53
2023/05/31 03:15:49;;;;;;;3.27;0.53;;;9.50;99.90;;;;;;5055048;28;20049;-50
2023/05/31 03:18:15;;;;;;;1.23;0.33;;;9.50;99.90;;;;;;5056222;28;20045;-52
2023/05/31 03:20:41;;;;;;;3.00;0.80;;;9.40;99.90;;;;;;5055121;28;20848;-50
2023/05/31 03:23:07;;;;;;;1.50;0.50;;;9.40;99.90;;;;;;5056130;28;20063;-53
2023/05/31 03:25:33;;;;;;;2.20;0.60;;;9.40;99.90;;;;;;5056132;28;20057;-53
2023/05/31 03:27:58;;;;;;;1.38;0.40;;;9.40;99.90;;;;;;5054771;28;20052;-53
2023/05/31 03:30:24;;;;;;;1.33;0.50;;;9.40;99.90;;;;;;5056005;28;20049;-51
2023/05/31 03:32:50;;;;;;;1.75;0.45;;;9.40;99.90;;;;;;5055888;28;20048;-53
2023/05/31 03:35:16;;;;;;;4.78;0.82;;;9.30;99.90;;;;;;5055905;28;20092;-49
2023/05/31 03:37:43;;;;;;;2.38;0.90;;;9.30;99.90;;;;;;5054331;28;20041;-49
2023/05/31 03:40:09;;;;;;;3.95;1.13;;;9.30;99.90;;;;;;5055585;28;20074;-52
2023/05/31 03:42:35;;;;;;;2.33;0.80;;;9.30;99.90;;;;;;5055769;28;20045;-52
2023/05/31 03:45:01;;;;;;;2.30;0.70;;;9.20;99.90;;;;;;5055632;28;20142;-51
2023/05/31 03:47:27;;;;;;;3.20;0.98;;;9.30;99.90;;;;;;5055608;28;20037;-52
2023/05/31 03:49:53;;;;;;;3.60;1.27;;;9.30;99.90;;;;;;5055178;28;20068;-51
2023/05/31 03:52:18;;;;;;;1.80;0.50;;;9.30;99.90;;;;;;5054867;28;20041;-53
2023/05/31 03:54:44;;;;;;;2.20;0.60;;;9.30;99.90;;;;;;5055852;28;20052;-53
2023/05/31 03:57:10;;;;;;;2.47;0.70;;;9.30;99.90;;;;;;5055548;28;20523;-51
2023/05/31 03:59:35;;;;;;;4.07;0.80;;;9.20;99.90;;;;;;5054556;28;20473;-51
2023/05/31 04:02:02;;;;;;;2.20;0.77;;;9.10;99.90;;;;;;5055329;28;20049;-50
2023/05/31 04:04:28;;;;;;;;;;;9.10;99.90;;;;;;5054941;28;20049;-52
2023/05/31 04:06:54;;;;;;;2.65;0.70;;;9.00;99.90;;;;;;5055000;28;19974;-52
2023/05/31 04:09:19;;;;;;;4.70;1.27;;;9.00;99.90;;;;;;5055295;28;20446;-52
2023/05/31 04:11:46;;;;;;;3.57;1.30;;;9.00;99.90;;;;;;5055300;28;20539;-52
2023/05/31 04:14:12;;;;;;;4.93;1.75;;;9.10;99.90;;;;;;5055260;28;20048;-53
2023/05/31 04:16:38;;;;;;;5.65;1.75;;;9.10;99.90;;;;;;5055106;28;20124;-52
2023/05/31 04:19:03;;;;;;;4.93;1.67;;;9.10;99.90;;;;;;5055014;28;20128;-53
2023/05/31 04:21:31;;;;;;;6.60;2.03;;;9.10;99.90;;;;;;5054981;28;20120;-53
2023/05/31 04:23:57;;;;;;;5.88;2.42;;;9.30;99.90;;;;;;5053405;28;20057;-53
2023/05/31 04:26:23;;;;;;;6.23;2.33;;;9.30;99.90;;;;;;5054838;28;20060;-52
2023/05/31 04:28:51;;;;;;;6.22;2.35;;;9.30;99.90;;;;;;5054908;28;20056;-52
2023/05/31 04:31:17;;;;;;;4.85;1.92;;;9.40;99.90;;;;;;5053844;28;20052;-50
2023/05/31 04:33:44;;;;;;;6.88;2.40;;;9.50;99.90;;;;;;5054696;28;20439;-51
2023/05/31 04:36:10;;;;;;;8.00;3.35;;;9.60;99.90;;;;;;5053642;28;20515;-53
2023/05/31 04:38:36;;;;;;;8.38;2.90;;;9.60;99.90;;;;;;5054686;28;20411;-53
2023/05/31 04:41:03;;;;;;;4.93;2.15;;;9.70;99.90;;;;;;5054726;28;20060;-51
2023/05/31 04:43:29;;;;;;;8.13;2.25;;;9.70;99.90;;;;;;5054433;28;20503;-52
2023/05/31 04:45:55;;;;;;;6.47;2.17;;;9.80;99.90;;;;;;5054616;28;20055;-52
2023/05/31 04:48:21;;;;;;;6.07;1.90;;;9.80;99.90;;;;;;5054353;28;20044;-52
2023/05/31 04:50:48;;;;;;;5.70;2.60;;;9.90;99.90;;;;;;5054426;28;20045;-52
2023/05/31 04:53:14;;;;;;;6.75;2.55;;;9.90;99.90;;;;;;5054627;28;20053;-52
2023/05/31 04:55:40;;;;;;;7.97;2.72;;;10.00;99.90;;;;;;5054325;28;20481;-53
2023/05/31 04:58:07;;;;;;;8.13;2.50;;;10.10;99.90;;;;;;5054341;28;20044;-53
2023/05/31 05:00:34;;;;;;;7.88;2.75;;;10.10;99.90;;;;;;5053984;28;20507;-53
2023/05/31 05:03:00;;;;;;;6.00;2.30;;;10.20;99.90;;;;;;5053153;28;20080;-50
2023/05/31 05:05:26;;;;;;;5.75;2.10;;;10.30;99.90;;;;;;5054078;28;20053;-50
2023/05/31 05:07:52;;;;;;;7.28;2.05;;;10.40;99.90;;;;;;5054071;28;20400;-52
2023/05/31 05:10:18;;;;;;;7.07;2.30;;;10.60;99.90;;;;;;5053239;28;20128;-52
2023/05/31 05:12:43;;;;;;;7.77;2.20;;;10.80;99.90;;;;;;5054110;28;20444;-53
2023/05/31 05:15:09;;;;;;;5.40;2.00;;;10.90;99.90;;;;;;5052966;28;20041;-50
2023/05/31 05:17:36;;;;;;;7.72;2.10;;;11.10;99.90;;;;;;5054098;28;20072;-51
2023/05/31 05:20:04;;;;;;;5.10;2.03;;;11.40;99.90;;;;;;5053633;28;20049;-49
2023/05/31 05:22:30;;;;;;;6.85;2.15;;;11.80;99.90;;;;;;5053637;28;20053;-52
2023/05/31 05:24:56;;;;;;;7.25;2.67;;;12.10;99.90;;;;;;5054150;28;20063;-50
2023/05/31 05:27:22;;;;;;;6.57;2.63;;;12.20;99.90;;;;;;5053763;28;20049;-50
2023/05/31 05:29:47;;;;;;;6.93;2.70;;;12.30;99.90;;;;;;5053960;28;20080;-49
2023/05/31 05:32:13;;;;;;;6.50;2.40;;;12.30;99.90;;;;;;5052855;28;20488;-50
2023/05/31 05:34:39;;;;;;;6.37;2.00;;;12.40;99.90;;;;;;5052531;28;20053;-53
2023/05/31 05:37:05;;;;;;;10.40;2.67;;;12.40;99.90;;;;;;5053712;28;20055;-52
2023/05/31 05:39:31;;;;;;;10.40;2.65;;;12.50;99.90;;;;;;5053710;28;20095;-49
2023/05/31 05:41:57;;;;;;;7.50;2.40;;;12.60;99.90;;;;;;5053677;28;20151;-53
2023/05/31 05:44:23;;;;;;;6.95;2.22;;;12.80;99.90;;;;;;5053599;28;20057;-52
2023/05/31 05:46:49;;;;;;;8.03;2.70;;;12.90;99.90;;;;;;5053404;28;20049;-50
2023/05/31 05:49:15;;;;;;;8.02;2.25;;;13.00;99.90;;;;;;5053360;28;20049;-51
2023/05/31 05:51:41;;;;;;;8.27;2.60;;;13.00;99.90;;;;;;5036122;28;20102;-50
2023/05/31 05:54:06;;;;;;;8.02;2.10;;;13.10;99.90;;;;;;5052584;28;20064;-52
2023/05/31 05:56:32;;;;;;;5.25;1.77;;;13.10;99.90;;;;;;5053537;28;20059;-51
2023/05/31 05:58:58;;;;;;;5.07;1.97;;;13.20;99.90;;;;;;5053326;28;20136;-48
2023/05/31 06:01:26;;;;;;;6.50;2.10;;;13.20;99.90;;;;;;5053276;28;20044;-49
2023/05/31 06:03:52;;;;;;;8.43;2.10;;;13.30;99.90;;;;;;5053373;28;20056;-57
2023/05/31 06:06:18;;;;;;;10.57;2.38;;;13.40;99.90;;;;;;5053382;28;20049;-51
2023/05/31 06:08:45;;;;;;;6.70;2.00;;;13.50;99.90;;;;;;5053732;28;20374;-53
2023/05/31 06:11:11;;;;;;;9.32;2.42;;;13.50;99.90;;;;;;5053328;28;20283;-51
2023/05/31 06:13:36;;;;;;;5.90;1.83;;;13.50;99.90;;;;;;5054191;28;20098;-52
2023/05/31 06:16:04;;;;;;;5.28;1.80;;;13.60;99.90;;;;;;5057228;28;20041;-51
2023/05/31 06:18:29;;;;;;;5.75;1.90;;;13.70;99.90;;;;;;5057063;28;20037;-49
2023/05/31 06:20:55;;;;;;;5.57;1.73;;;13.70;99.90;;;;;;5057333;28;20075;-53
2023/05/31 06:23:21;;;;;;;6.27;1.90;;;13.80;99.90;;;;;;5057037;28;20296;-51
2023/05/31 06:25:47;;;;;;;6.20;2.08;;;13.90;99.90;;;;;;5056034;28;20085;-52
2023/05/31 06:28:13;;;;;;;5.68;2.40;;;14.00;99.90;;;;;;5055833;28;20045;-51
2023/05/31 06:30:38;;;;;;;5.53;2.13;;;14.10;99.90;;;;;;5057233;28;20068;-55
2023/05/31 06:33:04;;;;;;;6.70;2.07;;;14.10;99.90;;;;;;5056853;28;20389;-52
2023/05/31 06:35:30;;;;;;;5.77;2.17;;;14.20;99.90;;;;;;5056940;28;20175;-53
2023/05/31 06:37:56;;;;;;;8.35;2.28;;;14.20;99.90;;;;;;5056921;28;20291;-54
2023/05/31 06:40:22;;;;;;;6.00;1.93;;;14.20;99.90;;;;;;5056900;28;20056;-54
2023/05/31 06:42:47;;;;;;;6.63;2.17;;;14.30;99.90;;;;;;5056742;28;20759;-52
2023/05/31 06:45:13;;;;;;;7.18;1.80;;;14.40;99.90;;;;;;5056597;28;20102;-50
2023/05/31 06:47:39;;;;;;;9.65;1.65;;;14.50;99.90;;;;;;5056638;28;20037;-52
2023/05/31 06:50:05;;;;;;;5.83;1.67;;;14.50;99.90;;;;;;5056701;28;20056;-51
2023/05/31 06:52:31;;;;;;;4.32;1.17;;;14.60;99.90;;;;;;5056968;28;20052;-54
2023/05/31 06:54:56;;;;;;;1.97;0.90;;;14.70;99.90;;;;;;5056601;28;20388;-54
2023/05/31 06:57:22;;;;;;;2.77;1.00;;;14.80;99.90;;;;;;5056553;28;20279;-54
2023/05/31 06:59:48;;;;;;;2.40;0.70;;;14.80;99.90;;;;;;5055568;28;20049;-55
2023/05/31 07:02:14;;;;;;;3.20;1.10;;;15.00;99.90;;;;;;5056424;28;20041;-56
2023/05/31 07:04:40;;;;;;;3.30;1.45;;;15.10;99.90;;;;;;5055522;28;20040;-54
2023/05/31 07:07:08;;;;;;;2.80;0.65;;;15.20;99.90;;;;;;5056302;28;20048;-56
2023/05/31 07:09:34;;;;;;;2.70;0.75;;;15.20;99.90;;;;;;5056291;28;20124;-56
2023/05/31 07:12:00;;;;;;;3.30;1.00;;;15.30;99.90;;;;;;5056386;28;20132;-56
2023/05/31 07:14:28;;;;;;;3.33;0.80;;;15.30;99.90;;;;;;5056294;28;20041;-55
2023/05/31 07:16:54;;;;;;;1.92;0.70;;;15.40;99.90;;;;;;5055045;28;20407;-51
2023/05/31 07:19:19;;;;;;;2.00;0.50;;;15.40;99.90;;;;;;5055280;28;20053;-55
2023/05/31 07:21:45;;;;;;;2.70;0.75;;;15.60;99.90;;;;;;5056063;28;20302;-54
2023/05/31 07:24:11;;;;;;;1.80;0.60;;;15.90;99.90;;;;;;5056219;28;20114;-55
2023/05/31 07:26:36;;;;;;;3.07;0.60;;;16.40;99.90;;;;;;5053642;28;20098;-54
2023/05/31 07:29:02;;;;;;;2.83;0.60;;;16.80;99.90;;;;;;5055754;28;20045;-55
2023/05/31 07:31:28;;;;;;;2.27;0.50;;;16.90;99.90;;;;;;5054455;28;20052;-55
2023/05/31 07:33:55;;;;;;;2.92;0.52;;;16.90;99.90;;;;;;5055776;28;20322;-55
2023/05/31 07:36:24;;;;;;;4.32;0.70;;;16.70;99.90;;;;;;5055905;28;20053;-55
2023/05/31 07:38:52;;;;;;;2.53;0.55;;;16.60;99.90;;;;;;5055740;28;20048;-53
2023/05/31 07:41:18;;;;;;;1.75;0.50;;;16.40;99.90;;;;;;5055850;28;20067;-56
2023/05/31 07:43:46;;;;;;;2.08;0.60;;;16.30;99.90;;;;;;5054752;28;20048;-57
2023/05/31 07:46:13;;;;;;;3.28;0.65;;;16.20;99.90;;;;;;5055629;28;20049;-53
2023/05/31 07:48:38;;;;;;;2.00;0.70;;;16.10;99.90;;;;;;5055724;28;20049;-56
2023/05/31 07:51:05;;;;;;;2.53;0.60;;;16.10;99.90;;;;;;5055604;28;20133;-56
2023/05/31 07:53:31;;;;;;;1.73;0.60;;;16.00;99.90;;;;;;5055414;28;20114;-56
2023/05/31 07:55:56;;;;;;;2.30;0.52;;;16.00;99.90;;;;;;5055427;28;20045;-53
2023/05/31 07:58:22;;;;;;;2.93;0.97;;;16.00;99.90;;;;;;5054327;28;20081;-53
2023/05/31 08:00:50;;;;;;;2.97;0.83;;;16.00;99.90;;;;;;5055787;28;20287;-52
2023/05/31 08:03:15;;;;;;;3.80;0.80;;;16.00;99.90;;;;;;5054434;28;20053;-54
2023/05/31 08:05:41;;;;;;;2.80;1.05;;;15.90;99.90;;;;;;5054392;28;20049;-53
2023/05/31 08:08:06;;;;;;;2.53;1.00;;;16.00;99.90;;;;;;5055389;28;20128;-56
2023/05/31 08:10:32;;;;;;;3.17;0.88;;;15.90;99.90;;;;;;5055275;28;20545;-55
2023/05/31 08:12:58;;;;;;;3.50;1.20;;;16.00;99.90;;;;;;5055185;28;20045;-54
2023/05/31 08:15:23;;;;;;;6.00;1.53;;;16.00;99.90;;;;;;5055185;28;20040;-55
2023/05/31 08:17:50;;;;;;;3.83;0.80;;;16.00;99.90;;;;;;5055096;28;20793;-55
2023/05/31 08:20:16;;;;;;;3.78;0.80;;;15.90;99.90;;;;;;5055240;28;20287;-56
2023/05/31 08:22:44;;;;;;;3.33;0.82;;;15.90;99.90;;;;;;5054894;28;20064;-55
2023/05/31 08:25:12;;;;;;;3.13;1.00;;;15.90;99.90;;;;;;5054788;28;20052;-54
2023/05/31 08:27:40;;;;;;;3.55;1.00;;;15.90;99.90;;;;;;5054674;28;20052;-57
2023/05/31 08:30:09;;;;;;;2.65;0.88;;;16.00;99.90;;;;;;5054779;28;20118;-54
2023/05/31 08:32:35;;;;;;;3.40;0.90;;;16.00;99.90;;;;;;5054848;28;20204;-55
2023/05/31 08:35:00;;;;;;;3.30;1.17;;;16.00;99.90;;;;;;5054790;28;20140;-56
2023/05/31 08:37:26;;;;;;;2.75;0.93;;;16.00;99.90;;;;;;5054274;28;20045;-53
2023/05/31 08:39:52;;;;;;;4.33;1.10;;;16.00;99.90;;;;;;5054745;28;20060;-57
2023/05/31 08:42:32;;;;;;;3.63;0.98;;;16.00;99.90;;;;;;5054612;28;20080;-56
2023/05/31 08:44:58;;;;;;;6.53;1.25;;;16.00;99.90;;;;;;5054743;28;20488;-55
2023/05/31 08:47:31;;;;;;;3.95;1.35;;;16.00;99.90;;;;;;5053326;28;20041;-55
2023/05/31 08:50:00;;;;;;;5.65;1.50;;;16.00;99.90;;;;;;5053629;28;20128;-54
2023/05/31 08:52:27;;;;;;;4.38;1.35;;;16.00;99.90;;;;;;5053534;28;20050;-53
2023/05/31 08:54:53;;;;;;;4.03;1.40;;;16.00;99.90;;;;;;5054154;28;20084;-54
2023/05/31 08:57:20;;;;;;;;;;;16.00;99.90;;;;;;5054951;28;20435;-56
2023/05/31 08:59:47;;;;;;;4.75;1.30;;;16.00;99.90;;;;;;5054090;28;20360;-56
2023/05/31 09:02:14;;;;;;;3.30;1.33;;;16.10;99.90;;;;;;5054217;28;20060;-54
2023/05/31 09:04:40;;;;;;;6.15;1.25;;;16.00;99.90;;;;;;5054256;28;20072;-56
2023/05/31 09:07:06;;;;;;;2.92;1.10;;;16.00;99.90;;;;;;5054106;28;20123;-51
2023/05/31 09:09:32;;;;;;;4.32;1.40;;;16.00;99.90;;;;;;5054118;28;20561;-56
2023/05/31 09:11:58;;;;;;;4.35;1.63;;;16.00;99.90;;;;;;5054374;28;20049;-54
2023/05/31 09:14:24;;;;;;;4.18;1.58;;;16.10;99.90;;;;;;5036463;28;20480;-52
2023/05/31 09:16:50;;;;;;;5.65;1.52;;;16.10;99.90;;;;;;5054005;28;20119;-55
2023/05/31 09:19:16;;;;;;;4.55;1.92;;;16.10;99.90;;;;;;5052647;28;20381;-54
2023/05/31 09:21:45;;;;;;;5.28;1.50;;;16.00;99.90;;;;;;5053766;28;20132;-55
2023/05/31 09:24:14;;;;;;;8.23;2.42;;;16.00;99.90;;;;;;5052686;28;20049;-50
2023/05/31 09:26:47;;;;;;;6.40;2.03;;;15.90;99.90;;;;;;5053728;28;20052;-55
2023/05/31 09:29:13;;;;;;;5.60;1.92;;;15.80;99.90;;;;;;5052702;28;20568;-53
2023/05/31 09:31:39;;;;;;;6.38;2.85;;;15.70;99.90;;;;;;5053626;28;20127;-56
2023/05/31 09:34:05;;;;;;;5.85;2.28;;;15.60;99.90;;;;;;5053693;28;20092;-53
2023/05/31 09:36:35;;;;;;;6.40;1.63;;;15.60;99.90;;;;;;5053673;28;20091;-53
2023/05/31 09:39:07;;;;;;;5.78;2.30;;;15.50;99.90;;;;;;5053711;28;20747;-51
2023/05/31 09:41:33;;;;;;;4.70;1.98;;;15.40;99.90;;;;;;5053721;28;20107;-54
2023/05/31 09:43:58;;;;;;;5.90;1.85;;;15.50;99.90;;;;;;5053660;28;20053;-56
2023/05/31 09:46:25;;;;;;;7.55;2.40;;;15.40;99.90;;;;;;5053470;28;20044;-54
2023/05/31 09:48:59;;;;;;;4.72;2.08;;;15.40;99.90;;;;;;5052760;28;20060;-54
2023/05/31 09:51:25;;;;;;;5.10;2.08;;;15.40;99.90;;;;;;5053498;28;20419;-55
2023/05/31 09:53:57;;;;;;;5.38;2.15;;;15.40;99.90;;;;;;5053486;28;20106;-55
2023/05/31 09:56:25;;;;;;;5.18;1.75;;;15.40;99.90;;;;;;5053200;28;20496;-55
2023/05/31 09:58:51;;;;;;;5.70;2.20;;;15.40;99.90;;;;;;5052109;28;20404;-55
2023/05/31 10:01:20;;;;;;;7.30;2.22;;;15.40;99.90;;;;;;5053240;28;20049;-54
2023/05/31 10:03:48;;;;;;;4.88;1.95;;;15.40;99.90;;;;;;5053356;28;20049;-54
2023/05/31 10:06:16;;;;;;;15.43;12.10;;;15.40;99.90;;;;;;5053488;28;20051;-55
2023/05/31 10:08:43;;;;;;;10.48;7.20;;;15.50;99.90;;;;;;5053252;28;20400;-55
2023/05/31 10:11:12;;;;;;;9.63;4.35;;;15.60;99.90;;;;;;5053286;28;20500;-55
2023/05/31 10:13:43;;;;;;;8.32;3.63;;;15.60;99.90;;;;;;5053225;28;20139;-56
2023/05/31 10:16:10;;;;;;;6.75;2.92;;;15.70;99.90;;;;;;5053285;28;20045;-56
2023/05/31 10:18:45;;;;;;;5.18;1.92;;;15.80;99.90;;;;;;5053314;28;20048;-55
2023/05/31 10:21:22;;;;;;;6.68;3.33;;;15.80;99.90;;;;;;5053553;28;20049;-55
2023/05/31 10:24:13;;;;;;;5.57;2.30;;;15.90;99.90;;;;;;5053293;28;20118;-54
2023/05/31 10:26:49;;;;;;;5.90;2.20;;;15.90;99.90;;;;;;5052982;28;20056;-56
2023/05/31 10:29:21;;;;;;;6.50;2.35;;;16.10;99.90;;;;;;5052385;28;20045;-49
2023/05/31 10:31:51;;;;;;;4.40;2.20;;;16.20;99.90;;;;;;5053590;28;20073;-56
2023/05/31 10:34:22;;;;;;;8.35;2.55;;;16.20;99.90;;;;;;5053171;28;20075;-55
2023/05/31 10:36:52;;;;;;;4.85;1.80;;;16.30;99.90;;;;;;5053053;28;20112;-54
2023/05/31 10:39:33;;;;;;;5.82;2.05;;;16.40;99.90;;;;;;5052204;28;20037;-56
2023/05/31 10:42:22;;;;;;;4.80;2.05;;;16.50;99.90;;;;;;5053276;28;20092;-49
2023/05/31 10:45:22;;;;;;;6.07;1.88;;;16.60;99.90;;;;;;5046458;28;20088;-56
2023/05/31 10:48:03;;;;;;;5.72;2.13;;;16.70;99.90;;;;;;5036064;28;20053;-55
2023/05/31 10:50:28;;;;;;;5.53;1.55;;;16.80;99.90;;;;;;5053061;28;20066;-55
2023/05/31 10:53:12;;;;;;;3.47;1.70;;;17.00;99.90;;;;;;5052967;28;20487;-56
2023/05/31 10:55:42;;;;;;;5.10;1.77;;;17.10;99.90;;;;;;5052628;28;20055;-55
2023/05/31 10:58:31;;;;;;;4.32;1.80;;;17.30;99.90;;;;;;5052959;28;20081;-55
2023/05/31 11:01:02;;;;;;;5.18;1.65;;;17.40;99.90;;;;;;5055013;28;20075;-56
2023/05/31 11:03:29;;;;;;;4.47;1.83;;;17.50;99.90;;;;;;5056684;28;20045;-57
2023/05/31 11:06:03;;;;;;;3.25;1.50;;;17.60;99.90;;;;;;5056451;28;20484;-57
2023/05/31 11:08:30;;;;;;;5.30;1.70;;;17.70;99.90;;;;;;5056299;28;20049;-49
2023/05/31 11:11:27;;;;;;;4.57;1.63;;;17.70;99.90;;;;;;5055316;28;20053;-56
2023/05/31 11:14:26;;;;;;;3.22;1.30;;;17.70;99.90;;;;;;5056619;28;20475;-55
2023/05/31 11:17:03;;;;;;;4.72;1.30;;;17.80;99.90;;;;;;5056440;28;20460;-55
2023/05/31 11:19:32;;;;;;;;;;;17.90;99.90;;;;;;5057075;28;20144;-55
2023/05/31 11:22:09;;;;;;;3.08;1.38;;;18.00;99.90;;;;;;5055891;28;20364;-55
2023/05/31 11:24:51;;;;;;;;;;;18.00;99.90;;;;;;5056646;28;20045;-55
2023/05/31 11:27:38;;;;;;;3.78;1.52;;;18.10;99.90;;;;;;5056046;28;20330;-55
2023/05/31 11:30:13;;;;;;;3.42;1.40;;;18.20;99.90;;;;;;5055768;28;20140;-56
2023/05/31 11:32:39;;;;;;;3.28;1.40;;;18.30;99.90;;;;;;5056053;28;20048;-54
2023/05/31 11:35:11;;;;;;;4.32;1.20;;;18.50;99.90;;;;;;5055996;28;20520;-56
2023/05/31 11:37:38;;;;;;;2.15;1.00;;;18.50;99.90;;;;;;5056451;28;20041;-55
2023/05/31 11:40:06;;;;;;;5.10;1.40;;;18.60;99.90;;;;;;5055872;28;20484;-55
2023/05/31 11:42:35;;;;;;;2.92;1.20;;;18.50;99.90;;;;;;5055689;28;20053;-57
2023/05/31 11:45:04;;;;;;;4.53;1.40;;;18.60;99.90;;;;;;5055890;28;20095;-55
2023/05/31 11:47:36;;;;;;;4.80;1.75;;;18.60;99.90;;;;;;5055475;28;20148;-55
2023/05/31 11:50:02;;;;;;;3.72;1.02;;;18.60;99.90;;;;;;5055405;28;20158;-56
2023/05/31 11:52:28;;;;;;;3.75;1.15;;;18.80;99.90;;;;;;5038404;28;20107;-57
2023/05/31 11:54:57;;;;;;;2.63;1.00;;;18.80;99.90;;;;;;5054363;28;20053;-53
2023/05/31 11:57:23;;;;;;;3.72;1.17;;;18.80;99.90;;;;;;5055515;28;20099;-57
2023/05/31 11:59:50;;;;;;;2.83;1.10;;;18.80;99.90;;;;;;5055526;28;20385;-54
2023/05/31 12:02:17;;;;;;;;;;;18.90;99.90;;;;;;5055617;28;20504;-56
2023/05/31 12:04:43;;;;;;;2.55;1.10;;;18.90;99.90;;;;;;5055285;28;19981;-55
2023/05/31 12:07:22;;;;;;;3.20;1.23;;;18.90;99.90;;;;;;5056016;28;20045;-56
2023/05/31 12:09:48;;;;;;;4.32;1.00;;;18.90;99.90;;;;;;5055319;28;20049;-58
2023/05/31 12:12:14;;;;;;;5.25;1.40;;;19.00;99.90;;;;;;5054624;28;20052;-54
2023/05/31 12:14:51;;;;;;;3.38;1.40;;;19.10;99.90;;;;;;5054222;28;20068;-56
2023/05/31 12:17:16;;;;;;;3.78;1.30;;;19.20;99.90;;;;;;5055030;28;20049;-56
2023/05/31 12:19:42;;;;;;;3.45;1.23;;;19.20;99.90;;;;;;5055491;28;20507;-57
2023/05/31 12:22:08;;;;;;;3.50;1.25;;;19.30;99.90;;;;;;5054920;28;20139;-56
2023/05/31 12:24:36;;;;;;;4.63;1.42;;;19.40;99.90;;;;;;5055297;28;20048;-55
2023/05/31 12:27:02;;;;;;;5.88;1.70;;;19.40;99.90;;;;;;5054919;28;20037;-55
2023/05/31 12:29:31;;;;;;;4.20;1.25;;;19.40;99.90;;;;;;5053621;28;20044;-59
2023/05/31 12:32:04;;;;;;;7.07;1.92;;;19.40;99.90;;;;;;5054655;28;20476;-59
2023/05/31 12:34:36;;;;;;;4.80;1.75;;;19.40;99.90;;;;;;5054877;28;20087;-57
2023/05/31 12:37:09;;;;;;;4.30;1.63;;;19.40;99.90;;;;;;5054767;28;20049;-56
2023/05/31 12:39:37;;;;;;;4.25;1.63;;;19.40;99.90;;;;;;5054556;28;20091;-56
2023/05/31 12:42:04;;;;;;;4.60;1.55;;;19.30;99.90;;;;;;5054490;28;20045;-54
2023/05/31 12:44:31;;;;;;;6.25;1.48;;;19.40;99.90;;;;;;5053506;28;20061;-56
2023/05/31 12:47:01;;;;;;;4.90;1.40;;;19.40;99.90;;;;;;5054588;28;20124;-56
2023/05/31 12:49:32;;;;;;;5.85;1.17;;;19.30;99.90;;;;;;5054749;28;20431;-56
2023/05/31 12:52:04;;;;;;;2.60;1.02;;;19.20;99.90;;;;;;5054359;28;20048;-56
2023/05/31 12:54:37;;;;;;;3.53;1.58;;;19.20;99.90;;;;;;5054315;28;20045;-56